createdAt,value
2022-09-22T00:00:33.731Z,2.22
2022-09-22T00:03:42.365Z,5.30
2022-09-22T00:06:51.294Z,3.15
2022-09-22T00:09:56.198Z,4.90
2022-09-22T00:13:00.954Z,3.72
2022-09-22T00:16:11.172Z,3.85
2022-09-22T00:19:25.112Z,2.35
2022-09-22T00:22:29.919Z,6.32
2022-09-22T00:25:34.770Z,4.55
2022-09-22T00:28:41.583Z,5.68
2022-09-22T00:31:46.216Z,4.13
2022-09-22T00:34:50.570Z,3.38
2022-09-22T00:37:54.812Z,5.53
2022-09-22T00:41:01.323Z,7.47
2022-09-22T00:44:27.436Z,6.10
2022-09-22T00:47:42.740Z,2.55
2022-09-22T00:50:50.107Z,2.65
2022-09-22T00:53:57.116Z,6.57
2022-09-22T00:57:33.832Z,5.30
2022-09-22T01:00:38.543Z,3.67
2022-09-22T01:03:43.987Z,2.22
2022-09-22T01:06:48.722Z,5.70
2022-09-22T01:09:53.132Z,4.97
2022-09-22T01:13:34.809Z,4.43
2022-09-22T01:16:57.586Z,2.85
2022-09-22T01:20:35.716Z,9.00
2022-09-22T01:24:31.349Z,2.75
2022-09-22T01:28:16.926Z,4.07
2022-09-22T01:31:41.291Z,2.08
2022-09-22T01:35:07.167Z,2.58
2022-09-22T01:38:18.088Z,6.88
2022-09-22T01:41:51.587Z,2.65
2022-09-22T01:45:08.641Z,3.90
2022-09-22T01:48:29.895Z,3.00
2022-09-22T01:51:50.977Z,2.92
2022-09-22T01:55:13.240Z,3.42
2022-09-22T01:58:32.317Z,3.53
2022-09-22T02:01:46.042Z,3.55
2022-09-22T02:04:56.722Z,6.82
2022-09-22T02:08:10.090Z,4.15
2022-09-22T02:11:18.497Z,7.60
2022-09-22T02:14:23.991Z,3.83
2022-09-22T02:17:32.950Z,2.88
2022-09-22T02:20:39.878Z,6.20
2022-09-22T02:23:46.683Z,3.85
2022-09-22T02:26:51.117Z,4.63
2022-09-22T02:30:05.232Z,3.70
2022-09-22T02:33:11.664Z,7.90
2022-09-22T02:36:47.066Z,9.95
2022-09-22T02:40:32.054Z,5.95
2022-09-22T02:44:01.303Z,5.88
2022-09-22T02:47:15.355Z,6.80
2022-09-22T02:50:23.118Z,5.78
2022-09-22T02:53:27.244Z,10.57
2022-09-22T02:56:32.057Z,8.55
2022-09-22T02:59:36.881Z,4.32
2022-09-22T03:02:40.911Z,10.98
2022-09-22T03:05:45.321Z,7.95
2022-09-22T03:08:49.616Z,7.50
2022-09-22T03:11:54.071Z,7.35
2022-09-22T03:14:58.378Z,13.18
2022-09-22T03:18:02.881Z,11.80
2022-09-22T03:21:07.881Z,11.93
2022-09-22T03:24:12.399Z,8.25
2022-09-22T03:27:16.977Z,9.00
2022-09-22T03:30:22.249Z,5.88
2022-09-22T03:33:26.542Z,12.73
2022-09-22T03:36:30.970Z,7.88
2022-09-22T03:39:35.067Z,13.35
2022-09-22T03:42:39.598Z,10.70
2022-09-22T03:45:44.246Z,7.93
2022-09-22T03:48:48.770Z,8.98
2022-09-22T03:54:58.220Z,7.18
2022-09-22T03:58:03.821Z,10.35
2022-09-22T04:01:11.247Z,9.00
2022-09-22T04:04:15.671Z,10.23
2022-09-22T04:07:20.058Z,13.43
2022-09-22T04:10:24.396Z,12.98
2022-09-22T04:13:29.033Z,11.80
2022-09-22T04:16:34.042Z,10.35
2022-09-22T04:19:38.698Z,15.95
2022-09-22T04:22:43.386Z,18.05
2022-09-22T04:25:47.876Z,15.32
2022-09-22T04:28:52.123Z,8.32
2022-09-22T04:31:56.303Z,10.05
2022-09-22T04:35:00.765Z,10.18
2022-09-22T04:38:05.569Z,11.65
2022-09-22T04:41:10.168Z,12.95
2022-09-22T04:44:14.450Z,12.82
2022-09-22T04:47:18.781Z,13.50
2022-09-22T04:50:23.916Z,9.57
2022-09-22T04:53:31.636Z,14.98
2022-09-22T04:56:38.586Z,19.08
2022-09-22T04:59:42.945Z,22.95
2022-09-22T05:02:47.730Z,24.10
2022-09-22T05:05:52.274Z,21.67
2022-09-22T05:08:56.806Z,16.15
2022-09-22T05:12:01.216Z,16.88
2022-09-22T05:15:07.002Z,26.52
2022-09-22T05:18:12.553Z,28.75
2022-09-22T05:21:21.603Z,28.20
2022-09-22T05:24:25.887Z,32.20
2022-09-22T05:27:30.240Z,28.83
2022-09-22T05:30:34.717Z,28.23
2022-09-22T05:33:39.293Z,30.40
2022-09-22T05:36:43.787Z,25.23
2022-09-22T05:39:48.268Z,31.08
2022-09-22T05:42:57.560Z,29.15
2022-09-22T05:46:02.156Z,32.75
2022-09-22T05:49:06.415Z,32.35
2022-09-22T05:55:15.509Z,29.08
2022-09-22T05:58:20.637Z,32.50
2022-09-22T06:01:24.924Z,29.17
2022-09-22T06:04:29.242Z,28.45
2022-09-22T06:07:33.489Z,28.50
2022-09-22T06:10:39.196Z,31.52
2022-09-22T06:13:44.322Z,26.98
2022-09-22T06:16:48.746Z,26.70
2022-09-22T06:19:53.092Z,28.92
2022-09-22T06:22:57.518Z,31.75
2022-09-22T06:26:01.798Z,22.35
2022-09-22T06:29:06.473Z,27.48
2022-09-22T06:32:11.239Z,26.42
2022-09-22T06:35:17.759Z,23.48
2022-09-22T06:38:22.210Z,31.02
2022-09-22T06:41:28.911Z,28.33
2022-09-22T06:44:34.815Z,26.15
2022-09-22T06:47:39.295Z,20.10
2022-09-22T06:50:54.352Z,23.42
2022-09-22T06:54:02.024Z,23.52
2022-09-22T06:57:06.975Z,20.63
2022-09-22T07:00:14.560Z,25.33
2022-09-22T07:03:22.997Z,20.80
2022-09-22T07:06:27.554Z,23.77
2022-09-22T07:09:31.921Z,26.83
2022-09-22T07:12:36.066Z,26.80
2022-09-22T07:15:40.325Z,23.30
2022-09-22T07:18:48.198Z,26.50
2022-09-22T07:21:52.790Z,20.52
2022-09-22T07:24:57.390Z,24.45
2022-09-22T07:28:05.103Z,23.15
2022-09-22T07:31:12.936Z,19.27
2022-09-22T07:34:18.682Z,26.13
2022-09-22T07:37:24.225Z,34.70
2022-09-22T07:40:28.607Z,21.10
2022-09-22T07:43:34.791Z,21.50
2022-09-22T07:46:39.906Z,20.77
2022-09-22T07:49:44.987Z,24.30
2022-09-22T07:52:53.866Z,21.42
2022-09-22T07:56:07.022Z,15.68
2022-09-22T07:59:16.777Z,19.75
2022-09-22T08:02:26.169Z,14.18
2022-09-22T08:05:32.015Z,14.57
2022-09-22T08:08:46.215Z,13.88
2022-09-22T08:11:51.000Z,13.30
2022-09-22T08:14:57.983Z,12.50
2022-09-22T08:18:04.124Z,14.63
2022-09-22T08:21:08.702Z,17.77
2022-09-22T08:24:15.572Z,17.23
2022-09-22T08:27:20.218Z,9.93
2022-09-22T08:30:24.870Z,13.70
2022-09-22T08:33:32.466Z,15.50
2022-09-22T08:36:37.735Z,13.98
2022-09-22T08:39:42.157Z,14.07
2022-09-22T08:42:46.963Z,8.98
2022-09-22T08:45:52.609Z,9.30
2022-09-22T08:49:56.507Z,9.77
2022-09-22T08:53:02.965Z,6.47
2022-09-22T08:56:36.826Z,13.02
2022-09-22T09:00:11.595Z,9.47
2022-09-22T09:03:59.106Z,7.57
2022-09-22T09:07:14.247Z,9.70
2022-09-22T09:11:08.037Z,11.50
2022-09-22T09:15:01.553Z,12.95
2022-09-22T09:18:20.960Z,3.45
2022-09-22T09:21:26.697Z,4.35
2022-09-22T09:28:24.189Z,5.57
2022-09-22T09:31:35.328Z,8.07
2022-09-22T09:34:40.254Z,9.38
2022-09-22T09:37:49.016Z,15.40
2022-09-22T09:41:28.223Z,5.57
2022-09-22T09:44:39.989Z,5.53
2022-09-22T09:48:09.646Z,3.45
2022-09-22T09:51:14.228Z,25.98
2022-09-22T09:54:20.457Z,29.10
2022-09-22T09:57:28.179Z,4.97
2022-09-22T10:00:43.066Z,7.18
2022-09-22T10:03:54.715Z,8.05
2022-09-22T10:07:23.439Z,19.05
2022-09-22T10:10:37.794Z,8.20
2022-09-22T10:13:44.353Z,11.38
2022-09-22T10:16:52.266Z,3.95
2022-09-22T10:20:26.295Z,5.78
2022-09-22T10:23:32.992Z,7.72
2022-09-22T10:26:40.987Z,9.50
2022-09-22T10:29:45.291Z,10.95
2022-09-22T10:33:06.807Z,4.85
2022-09-22T10:36:12.573Z,9.45
2022-09-22T10:39:20.235Z,11.77
2022-09-22T10:42:41.201Z,16.73
2022-09-22T10:46:10.745Z,17.77
2022-09-22T10:49:40.792Z,4.20
2022-09-22T10:53:10.698Z,7.35
2022-09-22T10:56:37.629Z,7.15
2022-09-22T11:00:10.002Z,5.45
2022-09-22T11:03:40.856Z,7.15
2022-09-22T11:07:32.654Z,5.85
2022-09-22T11:11:28.985Z,9.05
2022-09-22T11:15:02.241Z,7.53
2022-09-22T11:18:49.733Z,8.77
2022-09-22T11:22:55.739Z,7.60
2022-09-22T11:26:40.038Z,7.93
2022-09-22T11:29:53.083Z,16.17
2022-09-22T11:33:17.886Z,12.13
2022-09-22T11:40:32.920Z,3.42
2022-09-22T11:44:13.773Z,6.28
2022-09-22T11:47:39.020Z,4.10
2022-09-22T11:51:00.787Z,9.93
2022-09-22T11:54:25.484Z,8.30
2022-09-22T11:57:36.176Z,20.67
2022-09-22T12:00:52.553Z,7.57
2022-09-22T12:04:25.452Z,4.88
2022-09-22T12:07:59.639Z,12.63
2022-09-22T12:11:07.834Z,3.05
2022-09-22T12:14:15.189Z,5.65
2022-09-22T12:17:29.844Z,6.65
2022-09-22T12:21:06.731Z,9.07
2022-09-22T12:24:12.647Z,6.07
2022-09-22T12:27:27.482Z,6.45
2022-09-22T12:30:32.282Z,8.77
2022-09-22T12:33:44.823Z,13.32
2022-09-22T12:36:57.140Z,7.35
2022-09-22T12:40:30.763Z,9.80
2022-09-22T12:43:36.781Z,7.90
2022-09-22T12:46:43.168Z,5.40
2022-09-22T12:49:56.802Z,3.47
2022-09-22T12:53:05.112Z,17.83
2022-09-22T12:56:40.695Z,9.52
2022-09-22T13:00:23.933Z,4.43
2022-09-22T13:03:30.651Z,5.80
2022-09-22T13:06:37.619Z,3.20
2022-09-22T13:09:41.850Z,15.18
2022-09-22T13:13:05.642Z,9.90
2022-09-22T13:16:15.562Z,11.27
2022-09-22T13:19:19.608Z,11.90
2022-09-22T13:25:30.059Z,4.43
2022-09-22T13:28:34.327Z,5.50
2022-09-22T13:31:39.646Z,8.43
2022-09-22T13:34:44.112Z,4.15
2022-09-22T13:37:48.738Z,6.05
2022-09-22T13:40:53.075Z,3.35
2022-09-22T13:44:07.818Z,3.65
2022-09-22T13:47:18.771Z,2.75
2022-09-22T13:50:25.433Z,5.60
2022-09-22T13:53:31.265Z,5.72
2022-09-22T13:56:36.112Z,4.18
2022-09-22T13:59:42.611Z,4.90
2022-09-22T14:02:46.936Z,5.22
2022-09-22T14:05:53.995Z,7.78
2022-09-22T14:09:00.346Z,4.47
2022-09-22T14:12:09.934Z,5.38
2022-09-22T14:15:43.570Z,6.53
2022-09-22T14:18:53.901Z,5.40
2022-09-22T14:22:02.928Z,5.05
2022-09-22T14:25:19.386Z,5.30
2022-09-22T14:28:29.421Z,4.85
2022-09-22T14:31:33.871Z,6.65
2022-09-22T14:34:38.601Z,11.60
2022-09-22T14:37:48.631Z,6.80
2022-09-22T14:40:59.146Z,4.85
2022-09-22T14:44:32.662Z,6.72
2022-09-22T14:47:41.226Z,4.80
2022-09-22T14:50:55.251Z,8.88
2022-09-22T14:54:02.824Z,8.63
2022-09-22T14:57:08.811Z,4.93
2022-09-22T15:00:35.685Z,5.75
2022-09-22T15:03:42.360Z,7.72
2022-09-22T15:06:47.885Z,9.32
2022-09-22T15:10:00.337Z,2.50
2022-09-22T15:13:26.757Z,4.75
2022-09-22T15:16:43.441Z,5.60
2022-09-22T15:19:59.401Z,6.68
2022-09-22T15:23:04.634Z,4.32
2022-09-22T15:26:28.907Z,3.92
2022-09-22T15:29:33.713Z,7.05
2022-09-22T15:32:41.606Z,4.70
2022-09-22T15:35:53.613Z,4.03
2022-09-22T15:39:23.864Z,3.53
2022-09-22T15:42:28.660Z,3.10
2022-09-22T15:45:33.578Z,3.30
2022-09-22T15:48:43.089Z,2.75
2022-09-22T15:51:51.587Z,2.58
2022-09-22T15:54:56.105Z,3.70
2022-09-22T15:58:07.294Z,8.15
2022-09-22T16:01:11.939Z,3.22
2022-09-22T16:04:17.291Z,5.22
2022-09-22T16:07:22.297Z,3.22
2022-09-22T16:10:26.684Z,1.38
2022-09-22T16:13:33.326Z,1.88
2022-09-22T16:16:38.787Z,3.85
2022-09-22T16:19:43.174Z,8.13
2022-09-22T16:22:47.454Z,4.40
2022-09-22T16:25:56.122Z,10.05
2022-09-22T16:29:02.013Z,5.13
2022-09-22T16:32:07.210Z,10.77
2022-09-22T16:35:13.306Z,5.15
2022-09-22T16:38:18.103Z,3.65
2022-09-22T16:41:32.251Z,2.88
2022-09-22T16:47:41.093Z,4.22
2022-09-22T16:50:46.257Z,3.17
2022-09-22T16:53:53.844Z,4.65
2022-09-22T16:56:57.721Z,2.00
2022-09-22T17:00:02.203Z,3.83
2022-09-22T17:03:06.690Z,3.03
2022-09-22T17:06:13.681Z,3.88
2022-09-22T17:09:18.562Z,5.40
2022-09-22T17:12:23.079Z,5.30
2022-09-22T17:15:27.597Z,5.20
2022-09-22T17:18:31.822Z,5.32
2022-09-22T17:21:39.197Z,2.70
2022-09-22T17:24:43.916Z,5.05
2022-09-22T17:27:48.171Z,2.78
2022-09-22T17:31:00.487Z,1.85
2022-09-22T17:34:04.686Z,5.05
2022-09-22T17:37:14.127Z,4.40
2022-09-22T17:40:19.821Z,3.83
2022-09-22T17:43:24.283Z,2.20
2022-09-22T17:46:34.794Z,6.15
2022-09-22T17:49:58.731Z,6.50
2022-09-22T17:53:38.745Z,5.43
2022-09-22T17:56:46.708Z,3.47
2022-09-22T17:59:52.329Z,3.55
2022-09-22T18:02:58.362Z,3.08
2022-09-22T18:06:07.138Z,4.85
2022-09-22T18:09:11.526Z,1.77
2022-09-22T18:12:23.082Z,4.22
2022-09-22T18:15:28.027Z,3.00
2022-09-22T18:18:32.331Z,3.80
2022-09-22T18:24:45.215Z,5.97
2022-09-22T18:27:49.895Z,2.60
2022-09-22T18:30:54.625Z,4.30
2022-09-22T18:33:59.447Z,4.28
2022-09-22T18:37:04.902Z,5.18
2022-09-22T18:40:12.575Z,3.92
2022-09-22T18:43:17.069Z,5.10
2022-09-22T18:46:22.787Z,3.60
2022-09-22T18:49:31.950Z,2.63
2022-09-22T18:52:37.299Z,5.97
2022-09-22T18:55:41.561Z,4.80
2022-09-22T18:58:45.991Z,4.85
2022-09-22T19:01:51.585Z,7.70
2022-09-22T19:04:56.299Z,7.93
2022-09-22T19:08:01.860Z,4.15
2022-09-22T19:11:06.237Z,5.97
2022-09-22T19:14:17.970Z,4.28
2022-09-22T19:17:24.766Z,5.75
2022-09-22T19:20:29.166Z,4.35
2022-09-22T19:23:33.947Z,5.55
2022-09-22T19:26:42.295Z,6.47
2022-09-22T19:29:46.757Z,1.42
2022-09-22T19:32:51.477Z,4.43
2022-09-22T19:35:55.716Z,5.07
2022-09-22T19:39:00.846Z,4.13
2022-09-22T19:42:05.576Z,3.63
2022-09-22T19:45:09.931Z,3.47
2022-09-22T19:48:14.393Z,5.03
2022-09-22T19:51:18.851Z,4.72
2022-09-22T19:54:23.375Z,9.13
2022-09-22T19:57:27.890Z,5.90
2022-09-22T20:00:32.954Z,9.02
2022-09-22T20:03:37.449Z,5.63
2022-09-22T20:06:41.724Z,6.70
2022-09-22T20:09:46.339Z,5.50
2022-09-22T20:12:52.102Z,5.03
2022-09-22T20:15:58.005Z,4.35
2022-09-22T20:19:02.199Z,5.03
2022-09-22T20:22:25.313Z,6.05
2022-09-22T20:25:33.030Z,4.82
2022-09-22T20:28:39.734Z,10.23
2022-09-22T20:31:44.891Z,9.65
2022-09-22T20:34:54.263Z,9.02
2022-09-22T20:37:59.470Z,4.70
2022-09-22T20:41:05.178Z,9.73
2022-09-22T20:44:15.850Z,5.57
2022-09-22T20:47:23.179Z,5.45
2022-09-22T20:50:27.701Z,6.95
2022-09-22T20:53:34.949Z,5.00
2022-09-22T20:56:42.852Z,7.55
2022-09-22T20:59:47.661Z,7.03
2022-09-22T21:02:53.527Z,8.07
2022-09-22T21:06:04.932Z,7.25
2022-09-22T21:09:28.800Z,5.18
2022-09-22T21:12:33.315Z,7.80
2022-09-22T21:15:38.566Z,4.90
2022-09-22T21:18:42.914Z,5.05
2022-09-22T21:21:47.180Z,6.55
2022-09-22T21:24:52.559Z,3.80
2022-09-22T21:27:57.188Z,7.13
2022-09-22T21:31:05.006Z,3.33
2022-09-22T21:34:10.105Z,5.32
2022-09-22T21:37:14.968Z,4.03
2022-09-22T21:40:19.383Z,5.45
2022-09-22T21:43:23.605Z,3.50
2022-09-22T21:46:30.329Z,4.10
2022-09-22T21:49:39.433Z,7.50
2022-09-22T21:52:44.749Z,3.35
2022-09-22T21:56:02.926Z,5.43
2022-09-22T21:59:07.735Z,3.53
2022-09-22T22:02:12.674Z,3.10
2022-09-22T22:05:17.413Z,2.60
2022-09-22T22:08:21.700Z,4.47
2022-09-22T22:11:32.731Z,2.95
2022-09-22T22:14:36.809Z,5.63
2022-09-22T22:17:40.925Z,4.75
2022-09-22T22:20:45.814Z,3.92
2022-09-22T22:23:53.968Z,2.63
2022-09-22T22:27:05.769Z,4.45
2022-09-22T22:30:13.269Z,5.72
2022-09-22T22:33:17.747Z,3.88
2022-09-22T22:36:24.106Z,4.03
2022-09-22T22:39:29.844Z,6.18
2022-09-22T22:42:34.365Z,3.08
2022-09-22T22:45:43.907Z,4.38
2022-09-22T22:48:51.789Z,4.07
2022-09-22T22:51:56.032Z,3.40
2022-09-22T22:55:00.315Z,4.65
2022-09-22T23:01:16.912Z,5.18
2022-09-22T23:04:21.264Z,4.70
2022-09-22T23:07:25.586Z,5.78
2022-09-22T23:10:31.246Z,4.88
2022-09-22T23:13:35.862Z,3.60
2022-09-22T23:16:46.058Z,2.67
2022-09-22T23:19:51.041Z,4.50
2022-09-22T23:22:55.651Z,4.65
2022-09-22T23:26:01.705Z,4.55
2022-09-22T23:29:06.792Z,2.95
2022-09-22T23:32:11.494Z,6.13
2022-09-22T23:35:16.313Z,5.78
2022-09-22T23:38:20.590Z,4.15
2022-09-22T23:41:25.119Z,2.22
2022-09-22T23:44:29.721Z,3.80
2022-09-22T23:47:34.193Z,2.90
2022-09-22T23:50:38.429Z,4.78
2022-09-22T23:53:42.985Z,8.70
2022-09-22T23:56:47.327Z,4.13
2022-09-22T23:59:51.476Z,5.20
